createdAt,value
2022-10-13T00:01:12.871Z,15.24
2022-10-13T00:03:40.936Z,14.89
2022-10-13T00:06:13.938Z,14.88
2022-10-13T00:08:44.450Z,15.05
2022-10-13T00:11:12.954Z,15.23
2022-10-13T00:13:40.917Z,15.32
2022-10-13T00:16:09.503Z,15.21
2022-10-13T00:18:37.284Z,15.47
2022-10-13T00:21:07.846Z,15.48
2022-10-13T00:23:38.397Z,16.13
2022-10-13T00:26:06.951Z,16.30
2022-10-13T00:28:34.751Z,16.16
2022-10-13T00:31:02.514Z,15.69
2022-10-13T00:33:30.014Z,15.82
2022-10-13T00:36:03.191Z,16.16
2022-10-13T00:38:34.479Z,16.15
2022-10-13T00:41:03.407Z,16.24
2022-10-13T00:43:45.843Z,16.00
2022-10-13T00:46:13.437Z,15.49
2022-10-13T00:48:41.241Z,16.02
2022-10-13T00:51:08.885Z,15.95
2022-10-13T00:53:37.056Z,15.62
2022-10-13T00:56:07.606Z,15.57
2022-10-13T00:58:35.566Z,15.65
2022-10-13T01:01:03.477Z,15.47
2022-10-13T01:03:31.487Z,15.96
2022-10-13T01:06:00.638Z,15.65
2022-10-13T01:08:30.385Z,15.65
2022-10-13T01:10:59.822Z,15.32
2022-10-13T01:13:31.958Z,13.67
2022-10-13T01:16:01.000Z,15.11
2022-10-13T01:18:31.133Z,14.96
2022-10-13T01:21:01.896Z,14.73
2022-10-13T01:23:39.508Z,15.07
2022-10-13T01:26:29.405Z,14.56
2022-10-13T01:29:17.798Z,14.72
2022-10-13T01:31:47.529Z,14.92
2022-10-13T01:34:22.556Z,14.79
2022-10-13T01:36:52.093Z,14.33
2022-10-13T01:39:22.427Z,14.55
2022-10-13T01:41:51.343Z,14.41
2022-10-13T01:44:19.758Z,13.84
2022-10-13T01:46:50.752Z,14.45
2022-10-13T01:49:18.754Z,14.27
2022-10-13T01:51:47.112Z,14.33
2022-10-13T01:54:14.900Z,14.74
2022-10-13T01:56:49.509Z,14.57
2022-10-13T01:59:17.468Z,14.36
2022-10-13T02:01:48.834Z,13.08
2022-10-13T02:04:24.425Z,14.65
2022-10-13T02:06:53.256Z,14.56
2022-10-13T02:09:22.453Z,14.97
2022-10-13T02:11:50.974Z,14.94
2022-10-13T02:14:19.748Z,15.18
2022-10-13T02:16:47.374Z,15.19
2022-10-13T02:19:16.584Z,15.07
2022-10-13T02:21:46.222Z,15.01
2022-10-13T02:24:16.510Z,15.02
2022-10-13T02:26:44.285Z,15.05
2022-10-13T02:29:12.648Z,14.97
2022-10-13T02:31:41.176Z,14.68
2022-10-13T02:34:09.146Z,15.29
2022-10-13T02:36:37.875Z,15.28
2022-10-13T02:39:07.618Z,15.29
2022-10-13T02:41:36.550Z,15.22
2022-10-13T02:44:06.973Z,15.21
2022-10-13T02:46:37.174Z,15.48
2022-10-13T02:49:04.821Z,15.34
2022-10-13T02:51:41.586Z,15.64
2022-10-13T02:54:10.900Z,15.55
2022-10-13T02:56:38.462Z,15.42
2022-10-13T02:59:08.319Z,15.66
2022-10-13T03:01:46.488Z,15.71
2022-10-13T03:04:14.078Z,15.76
2022-10-13T03:06:46.544Z,15.94
2022-10-13T03:09:15.535Z,16.03
2022-10-13T03:11:45.979Z,15.78
2022-10-13T03:14:13.600Z,15.45
2022-10-13T03:16:44.730Z,15.67
2022-10-13T03:19:17.978Z,15.59
2022-10-13T03:21:48.598Z,15.41
2022-10-13T03:24:19.475Z,15.18
2022-10-13T03:26:49.914Z,16.06
2022-10-13T03:29:18.308Z,16.31
2022-10-13T03:31:48.272Z,15.09
2022-10-13T03:34:16.877Z,16.03
2022-10-13T03:36:44.785Z,16.07
2022-10-13T03:39:13.362Z,16.02
2022-10-13T03:41:43.001Z,16.03
2022-10-13T03:44:12.627Z,15.53
2022-10-13T03:46:40.358Z,15.70
2022-10-13T03:49:13.578Z,15.94
2022-10-13T03:51:41.370Z,16.19
2022-10-13T03:54:10.743Z,15.54
2022-10-13T03:56:46.869Z,15.81
2022-10-13T03:59:17.053Z,15.77
2022-10-13T04:01:44.683Z,15.57
2022-10-13T04:04:12.807Z,15.78
2022-10-13T04:06:43.597Z,15.48
2022-10-13T04:09:12.631Z,15.32
2022-10-13T04:11:40.225Z,15.08
2022-10-13T04:14:11.489Z,14.88
2022-10-13T04:16:40.862Z,14.86
2022-10-13T04:19:09.334Z,15.13
2022-10-13T04:21:37.274Z,15.35
2022-10-13T04:24:09.787Z,14.93
2022-10-13T04:26:37.775Z,14.69
2022-10-13T04:29:05.571Z,14.82
2022-10-13T04:31:33.283Z,14.84
2022-10-13T04:34:04.081Z,14.77
2022-10-13T04:36:31.700Z,15.36
2022-10-13T04:39:01.974Z,15.11
2022-10-13T04:41:29.742Z,15.03
2022-10-13T04:44:02.327Z,15.07
2022-10-13T04:46:41.366Z,15.19
2022-10-13T04:49:12.665Z,14.37
2022-10-13T04:51:40.205Z,14.66
2022-10-13T04:54:07.817Z,14.24
2022-10-13T04:56:35.551Z,14.10
2022-10-13T04:59:05.313Z,14.05
2022-10-13T05:01:33.428Z,14.16
2022-10-13T05:04:04.428Z,14.08
2022-10-13T05:06:35.521Z,13.81
2022-10-13T05:09:03.070Z,13.72
2022-10-13T05:11:30.924Z,13.69
2022-10-13T05:13:59.908Z,13.72
2022-10-13T05:16:27.798Z,13.51
2022-10-13T05:18:55.738Z,13.63
2022-10-13T05:21:29.298Z,13.83
2022-10-13T05:24:00.421Z,13.76
2022-10-13T05:26:30.474Z,13.96
2022-10-13T05:28:58.683Z,14.10
2022-10-13T05:31:27.180Z,13.80
2022-10-13T05:33:54.887Z,13.77
2022-10-13T05:36:23.597Z,13.91
2022-10-13T05:38:51.849Z,13.70
2022-10-13T05:41:24.311Z,13.96
2022-10-13T05:43:52.710Z,14.07
2022-10-13T05:46:20.378Z,14.05
2022-10-13T05:48:48.205Z,13.91
2022-10-13T05:51:19.950Z,13.87
2022-10-13T05:53:51.907Z,13.84
2022-10-13T05:56:25.195Z,13.86
2022-10-13T05:58:53.625Z,14.07
2022-10-13T06:01:23.005Z,13.98
2022-10-13T06:03:50.780Z,14.02
2022-10-13T06:06:18.791Z,14.14
2022-10-13T06:08:46.538Z,15.00
2022-10-13T06:11:14.255Z,15.33
2022-10-13T06:13:43.278Z,14.95
2022-10-13T06:16:11.018Z,14.87
2022-10-13T06:18:39.441Z,14.66
2022-10-13T06:21:07.444Z,14.80
2022-10-13T06:23:35.346Z,14.65
2022-10-13T06:26:11.310Z,15.12
2022-10-13T06:28:43.329Z,15.29
2022-10-13T06:31:14.488Z,15.56
2022-10-13T06:33:45.079Z,15.03
2022-10-13T06:36:14.561Z,14.77
2022-10-13T06:38:45.459Z,14.74
2022-10-13T06:41:15.480Z,15.50
2022-10-13T06:43:45.017Z,15.27
2022-10-13T06:46:17.050Z,15.60
2022-10-13T06:48:46.514Z,15.74
2022-10-13T06:51:14.354Z,15.37
2022-10-13T06:53:45.000Z,15.02
2022-10-13T06:56:14.789Z,15.19
2022-10-13T06:58:42.478Z,15.05
2022-10-13T07:01:12.651Z,15.13
2022-10-13T07:03:45.815Z,15.47
2022-10-13T07:06:16.566Z,15.80
2022-10-13T07:08:44.462Z,15.11
2022-10-13T07:11:16.249Z,14.63
2022-10-13T07:13:46.612Z,15.25
2022-10-13T07:16:17.898Z,14.91
2022-10-13T07:18:51.878Z,14.70
2022-10-13T07:21:21.002Z,14.93
2022-10-13T07:23:51.485Z,14.56
2022-10-13T07:26:22.662Z,14.82
2022-10-13T07:28:51.174Z,14.34
2022-10-13T07:31:20.297Z,14.57
2022-10-13T07:33:53.715Z,14.78
2022-10-13T07:36:21.851Z,14.80
2022-10-13T07:38:49.928Z,14.73
2022-10-13T07:41:18.031Z,15.09
2022-10-13T07:43:48.249Z,15.16
2022-10-13T07:46:16.294Z,14.81
2022-10-13T07:48:45.586Z,15.67
2022-10-13T07:51:16.152Z,15.66
2022-10-13T07:53:44.505Z,15.53
2022-10-13T07:56:12.838Z,13.70
2022-10-13T07:58:41.166Z,15.20
2022-10-13T08:01:09.200Z,15.35
2022-10-13T08:03:39.404Z,15.31
2022-10-13T08:06:08.948Z,15.60
2022-10-13T08:08:40.142Z,15.32
2022-10-13T08:11:12.422Z,14.80
2022-10-13T08:13:44.315Z,15.72
2022-10-13T08:16:12.032Z,16.32
2022-10-13T08:18:39.688Z,16.30
2022-10-13T08:23:59.958Z,15.76
2022-10-13T08:26:28.299Z,15.54
2022-10-13T08:29:20.698Z,15.97
2022-10-13T08:34:23.642Z,15.76
2022-10-13T08:36:53.498Z,15.77
2022-10-13T08:39:25.299Z,15.40
2022-10-13T08:41:56.382Z,15.92
2022-10-13T08:47:17.399Z,17.36
2022-10-13T08:49:49.010Z,16.87
2022-10-13T08:52:19.631Z,17.28
2022-10-13T08:54:52.333Z,16.74
2022-10-13T08:57:20.463Z,16.77
2022-10-13T08:59:49.548Z,16.90
2022-10-13T09:02:24.192Z,16.76
2022-10-13T09:04:54.991Z,16.50
2022-10-13T09:07:24.238Z,16.20
2022-10-13T09:09:57.100Z,15.92
2022-10-13T09:12:25.179Z,16.22
2022-10-13T09:14:59.505Z,15.29
2022-10-13T09:17:30.667Z,16.20
2022-10-13T09:19:59.860Z,16.61
2022-10-13T09:22:28.356Z,16.63
2022-10-13T09:25:17.517Z,16.05
2022-10-13T09:27:47.263Z,16.60
2022-10-13T09:30:42.249Z,16.16
2022-10-13T09:33:19.247Z,16.61
2022-10-13T09:35:47.891Z,16.78
2022-10-13T09:38:16.909Z,17.55
2022-10-13T09:40:46.891Z,17.83
2022-10-13T09:43:21.480Z,16.87
2022-10-13T09:45:49.067Z,17.09
2022-10-13T09:48:19.887Z,17.14
2022-10-13T09:50:49.210Z,17.35
2022-10-13T09:53:19.622Z,17.50
2022-10-13T09:55:49.683Z,17.02
2022-10-13T09:58:19.866Z,17.01
2022-10-13T10:00:48.764Z,17.35
2022-10-13T10:03:17.788Z,17.20
2022-10-13T10:05:47.705Z,18.13
2022-10-13T10:08:17.106Z,17.26
2022-10-13T10:10:44.751Z,18.03
2022-10-13T10:13:14.644Z,17.80
2022-10-13T10:15:45.705Z,17.55
2022-10-13T10:18:15.010Z,18.19
2022-10-13T10:20:48.587Z,17.88
2022-10-13T10:23:20.978Z,18.37
2022-10-13T10:25:52.406Z,17.88
2022-10-13T10:28:30.220Z,18.11
2022-10-13T10:30:59.012Z,18.29
2022-10-13T10:33:28.969Z,18.51
2022-10-13T10:35:57.699Z,18.75
2022-10-13T10:38:33.663Z,17.91
2022-10-13T10:41:03.342Z,17.64
2022-10-13T10:43:45.471Z,18.31
2022-10-13T10:46:18.239Z,18.52
2022-10-13T10:48:46.544Z,18.84
2022-10-13T10:51:14.378Z,18.29
2022-10-13T10:53:47.821Z,19.17
2022-10-13T10:56:17.268Z,18.81
2022-10-13T10:58:51.434Z,19.68
2022-10-13T11:01:24.631Z,19.62
2022-10-13T11:03:55.747Z,20.35
2022-10-13T11:06:24.618Z,20.28
2022-10-13T11:09:00.430Z,20.15
2022-10-13T11:11:37.743Z,19.70
2022-10-13T11:14:25.054Z,19.63
2022-10-13T11:17:11.809Z,19.22
2022-10-13T11:19:40.750Z,19.50
2022-10-13T11:22:13.352Z,19.64
2022-10-13T11:24:57.150Z,20.35
2022-10-13T11:27:43.918Z,19.30
2022-10-13T11:30:30.526Z,19.45
2022-10-13T11:33:19.168Z,20.17
2022-10-13T11:35:47.044Z,19.32
2022-10-13T11:38:22.495Z,18.87
2022-10-13T11:40:59.425Z,19.23
2022-10-13T11:43:32.889Z,19.36
2022-10-13T11:46:06.826Z,19.29
2022-10-13T11:48:53.602Z,19.18
2022-10-13T11:51:27.033Z,19.68
2022-10-13T11:53:55.703Z,20.21
2022-10-13T11:56:24.171Z,20.92
2022-10-13T11:58:57.029Z,20.89
2022-10-13T12:01:27.899Z,20.97
2022-10-13T12:03:57.624Z,20.30
2022-10-13T12:06:33.778Z,20.42
2022-10-13T12:09:06.302Z,20.36
2022-10-13T12:11:35.886Z,20.14
2022-10-13T12:14:04.511Z,20.56
2022-10-13T12:16:32.263Z,20.13
2022-10-13T12:19:10.008Z,21.06
2022-10-13T12:21:51.637Z,20.71
2022-10-13T12:24:23.005Z,21.80
2022-10-13T12:26:50.745Z,20.95
2022-10-13T12:29:21.393Z,20.46
2022-10-13T12:31:52.797Z,19.75
2022-10-13T12:34:22.002Z,20.59
2022-10-13T12:36:57.077Z,21.61
2022-10-13T12:39:25.554Z,21.79
2022-10-13T12:41:53.264Z,21.15
2022-10-13T12:45:10.385Z,21.54
2022-10-13T12:47:39.930Z,22.08
2022-10-13T12:50:27.446Z,21.28
2022-10-13T12:53:07.310Z,21.89
2022-10-13T12:55:35.298Z,22.50
2022-10-13T12:58:05.908Z,22.72
2022-10-13T13:00:33.525Z,21.87
2022-10-13T13:03:03.260Z,21.01
2022-10-13T13:05:31.803Z,20.76
2022-10-13T13:08:01.787Z,20.39
2022-10-13T13:10:31.610Z,21.16
2022-10-13T13:13:14.494Z,20.60
2022-10-13T13:15:42.484Z,21.53
2022-10-13T13:18:31.548Z,21.70
2022-10-13T13:20:59.482Z,22.01
2022-10-13T13:23:34.120Z,21.45
2022-10-13T13:26:04.221Z,20.07
2022-10-13T13:28:35.728Z,21.85
2022-10-13T13:31:05.568Z,21.71
2022-10-13T13:33:33.809Z,21.41
2022-10-13T13:36:01.875Z,21.40
2022-10-13T13:38:31.083Z,21.71
2022-10-13T13:41:03.060Z,21.85
2022-10-13T13:43:31.959Z,21.58
2022-10-13T13:45:59.561Z,21.38
2022-10-13T13:48:27.779Z,19.98
2022-10-13T13:50:58.772Z,20.39
2022-10-13T13:53:26.776Z,20.73
2022-10-13T13:55:57.317Z,20.58
2022-10-13T13:58:25.104Z,19.87
2022-10-13T14:00:53.059Z,19.37
2022-10-13T14:03:20.674Z,19.23
2022-10-13T14:05:48.384Z,18.18
2022-10-13T14:08:15.937Z,18.87
2022-10-13T14:10:43.578Z,18.85
2022-10-13T14:13:13.791Z,19.23
2022-10-13T14:15:42.903Z,18.56
2022-10-13T14:18:10.456Z,18.73
2022-10-13T14:20:43.799Z,19.10
2022-10-13T14:23:11.589Z,19.19
2022-10-13T14:25:39.445Z,19.23
2022-10-13T14:28:12.492Z,18.28
2022-10-13T14:30:44.064Z,19.15
2022-10-13T14:33:11.597Z,19.03
2022-10-13T14:35:49.067Z,19.13
2022-10-13T14:38:16.802Z,19.44
2022-10-13T14:40:44.438Z,19.28
2022-10-13T14:43:11.979Z,19.46
2022-10-13T14:45:41.723Z,19.61
2022-10-13T14:48:11.847Z,19.41
2022-10-13T14:50:41.163Z,19.30
2022-10-13T14:53:15.405Z,19.11
2022-10-13T14:55:43.081Z,19.35
2022-10-13T14:58:13.219Z,19.52
2022-10-13T15:00:43.781Z,19.37
2022-10-13T15:03:12.726Z,19.55
2022-10-13T15:05:40.375Z,19.67
2022-10-13T15:08:08.210Z,19.70
2022-10-13T15:10:35.819Z,19.77
2022-10-13T15:13:03.393Z,19.34
2022-10-13T15:15:34.059Z,19.53
2022-10-13T15:18:01.618Z,19.28
2022-10-13T15:20:30.691Z,19.19
2022-10-13T15:23:00.741Z,19.54
2022-10-13T15:25:28.602Z,19.25
2022-10-13T15:27:59.377Z,19.54
2022-10-13T15:30:27.063Z,19.49
2022-10-13T15:33:01.574Z,19.85
2022-10-13T15:35:35.833Z,19.76
2022-10-13T15:38:06.010Z,19.47
2022-10-13T15:40:33.921Z,19.36
2022-10-13T15:43:01.736Z,19.25
2022-10-13T15:45:29.412Z,19.54
2022-10-13T15:48:02.673Z,19.52
2022-10-13T15:50:32.381Z,19.24
2022-10-13T15:53:05.615Z,18.99
2022-10-13T15:55:33.496Z,19.18
2022-10-13T15:58:01.676Z,18.68
2022-10-13T16:00:30.758Z,19.07
2022-10-13T16:03:04.431Z,19.41
2022-10-13T16:05:33.867Z,19.51
2022-10-13T16:08:01.586Z,19.01
2022-10-13T16:10:33.856Z,18.67
2022-10-13T16:13:03.966Z,18.84
2022-10-13T16:15:31.825Z,19.13
2022-10-13T16:18:00.564Z,19.23
2022-10-13T16:20:32.920Z,19.26
2022-10-13T16:23:02.175Z,18.96
2022-10-13T16:25:31.919Z,19.38
2022-10-13T16:28:00.776Z,19.51
2022-10-13T16:30:30.476Z,19.45
2022-10-13T16:33:01.265Z,19.49
2022-10-13T16:35:29.404Z,19.43
2022-10-13T16:37:59.965Z,19.35
2022-10-13T16:40:29.282Z,19.30
2022-10-13T16:42:57.989Z,19.32
2022-10-13T16:45:41.330Z,19.22
2022-10-13T16:48:14.094Z,19.16
2022-10-13T16:50:41.643Z,18.87
2022-10-13T16:53:11.117Z,19.07
2022-10-13T16:55:41.786Z,19.23
2022-10-13T16:58:11.471Z,19.04
2022-10-13T17:00:41.129Z,18.98
2022-10-13T17:03:11.857Z,18.96
2022-10-13T17:05:39.434Z,19.05
2022-10-13T17:08:07.239Z,19.00
2022-10-13T17:10:35.175Z,19.11
2022-10-13T17:13:04.446Z,19.06
2022-10-13T17:15:42.334Z,19.10
2022-10-13T17:18:09.995Z,19.13
2022-10-13T17:20:37.580Z,19.23
2022-10-13T17:23:05.309Z,19.08
2022-10-13T17:25:37.355Z,19.02
2022-10-13T17:28:06.679Z,19.25
2022-10-13T17:30:37.078Z,19.27
2022-10-13T17:33:05.042Z,19.37
2022-10-13T17:35:33.332Z,19.01
2022-10-13T17:38:00.924Z,19.16
2022-10-13T17:40:28.877Z,19.26
2022-10-13T17:42:57.113Z,18.98
2022-10-13T17:45:27.968Z,18.38
2022-10-13T17:47:58.650Z,18.43
2022-10-13T17:50:27.639Z,18.88
2022-10-13T17:52:55.336Z,18.57
2022-10-13T17:55:26.017Z,18.42
2022-10-13T17:57:53.570Z,18.30
2022-10-13T18:00:21.517Z,18.37
2022-10-13T18:02:53.333Z,18.61
2022-10-13T18:05:21.085Z,18.68
2022-10-13T18:07:48.683Z,18.48
2022-10-13T18:10:17.908Z,18.55
2022-10-13T18:12:45.629Z,18.59
2022-10-13T18:15:13.292Z,18.98
2022-10-13T18:17:41.027Z,18.61
2022-10-13T18:20:11.618Z,18.40
2022-10-13T18:22:39.172Z,18.48
2022-10-13T18:25:07.237Z,17.73
2022-10-13T18:27:34.808Z,18.09
2022-10-13T18:30:03.010Z,18.23
2022-10-13T18:32:30.662Z,17.99
2022-10-13T18:34:58.574Z,17.63
2022-10-13T18:37:30.868Z,17.84
2022-10-13T18:40:04.758Z,18.23
2022-10-13T18:42:32.740Z,18.15
2022-10-13T18:45:01.066Z,18.24
2022-10-13T18:47:28.929Z,18.51
2022-10-13T18:49:56.684Z,18.66
2022-10-13T18:52:24.763Z,18.91
2022-10-13T18:54:56.857Z,18.45
2022-10-13T18:57:24.787Z,18.51
2022-10-13T18:59:52.724Z,18.29
2022-10-13T19:02:20.709Z,18.10
2022-10-13T19:04:48.622Z,18.31
2022-10-13T19:07:16.251Z,18.48
2022-10-13T19:09:43.823Z,18.00
2022-10-13T19:12:14.319Z,18.00
2022-10-13T19:14:41.921Z,17.88
2022-10-13T19:17:12.278Z,18.09
2022-10-13T19:19:42.893Z,18.11
2022-10-13T19:22:10.945Z,18.23
2022-10-13T19:24:39.092Z,17.95
2022-10-13T19:27:07.361Z,18.16
2022-10-13T19:29:36.547Z,18.41
2022-10-13T19:32:07.635Z,18.73
2022-10-13T19:34:35.264Z,18.78
2022-10-13T19:37:03.523Z,18.66
2022-10-13T19:39:32.405Z,18.49
2022-10-13T19:42:01.870Z,18.44
2022-10-13T19:44:29.509Z,18.64
2022-10-13T19:46:58.822Z,18.39
2022-10-13T19:49:30.381Z,18.41
2022-10-13T19:51:58.404Z,18.45
2022-10-13T19:54:30.197Z,18.29
2022-10-13T19:57:01.193Z,18.48
2022-10-13T19:59:28.970Z,18.61
2022-10-13T20:01:57.982Z,18.55
2022-10-13T20:04:28.182Z,18.43
2022-10-13T20:06:57.318Z,18.54
2022-10-13T20:09:29.224Z,18.26
2022-10-13T20:12:01.867Z,18.03
2022-10-13T20:14:29.530Z,17.88
2022-10-13T20:17:01.511Z,18.34
2022-10-13T20:19:32.733Z,17.98
2022-10-13T20:22:01.675Z,18.10
2022-10-13T20:24:29.266Z,17.79
2022-10-13T20:27:00.112Z,18.04
2022-10-13T20:29:27.658Z,18.25
2022-10-13T20:31:57.299Z,18.43
2022-10-13T20:34:27.534Z,18.06
2022-10-13T20:36:55.570Z,17.46
2022-10-13T20:39:23.132Z,17.57
2022-10-13T20:41:53.609Z,17.74
2022-10-13T20:44:21.175Z,17.87
2022-10-13T20:46:51.546Z,17.62
2022-10-13T20:49:19.336Z,17.84
2022-10-13T20:52:00.887Z,17.67
2022-10-13T20:54:28.433Z,17.67
2022-10-13T20:56:58.086Z,17.59
2022-10-13T20:59:25.964Z,17.45
2022-10-13T21:01:53.547Z,17.71
2022-10-13T21:04:23.733Z,17.69
2022-10-13T21:06:55.875Z,17.92
2022-10-13T21:09:26.614Z,17.59
2022-10-13T21:11:56.652Z,17.62
2022-10-13T21:14:25.989Z,17.63
2022-10-13T21:16:53.817Z,17.20
2022-10-13T21:19:23.716Z,16.99
2022-10-13T21:21:54.133Z,16.52
2022-10-13T21:24:21.667Z,16.36
2022-10-13T21:26:49.190Z,16.50
2022-10-13T21:29:18.339Z,16.69
2022-10-13T21:31:48.822Z,16.35
2022-10-13T21:34:16.385Z,16.06
2022-10-13T21:36:45.373Z,16.33
2022-10-13T21:39:17.696Z,16.23
2022-10-13T21:41:45.347Z,16.55
2022-10-13T21:44:13.546Z,16.36
2022-10-13T21:46:41.129Z,16.69
2022-10-13T21:49:09.352Z,16.58
2022-10-13T21:51:39.743Z,16.49
2022-10-13T21:54:09.598Z,16.58
2022-10-13T21:56:40.235Z,16.15
2022-10-13T21:59:08.402Z,16.25
2022-10-13T22:01:36.370Z,16.04
2022-10-13T22:04:03.993Z,15.80
2022-10-13T22:06:32.892Z,15.88
2022-10-13T22:09:01.132Z,15.60
2022-10-13T22:11:32.604Z,15.75
2022-10-13T22:14:01.776Z,15.64
2022-10-13T22:16:31.090Z,15.59
2022-10-13T22:18:58.905Z,15.69
2022-10-13T22:21:27.491Z,15.85
2022-10-13T22:23:58.890Z,15.60
2022-10-13T22:26:26.954Z,15.70
2022-10-13T22:28:54.955Z,16.13
2022-10-13T22:31:26.361Z,16.08
2022-10-13T22:33:55.209Z,16.03
2022-10-13T22:36:23.530Z,15.99
2022-10-13T22:38:52.120Z,15.83
2022-10-13T22:41:19.963Z,16.29
2022-10-13T22:43:56.381Z,16.69
2022-10-13T22:46:26.442Z,16.85
2022-10-13T22:48:53.974Z,16.61
2022-10-13T22:51:21.843Z,16.33
2022-10-13T22:53:52.538Z,16.06
2022-10-13T22:56:20.868Z,16.20
2022-10-13T22:58:50.334Z,16.37
2022-10-13T23:01:17.929Z,16.53
2022-10-13T23:03:49.082Z,16.64
2022-10-13T23:06:17.810Z,16.57
2022-10-13T23:08:46.146Z,16.65
2022-10-13T23:11:14.066Z,16.44
2022-10-13T23:13:44.534Z,16.16
2022-10-13T23:16:14.804Z,16.68
2022-10-13T23:18:42.548Z,16.59
2022-10-13T23:21:13.574Z,16.28
2022-10-13T23:23:41.661Z,16.08
2022-10-13T23:26:09.790Z,16.12
2022-10-13T23:28:37.862Z,16.35
2022-10-13T23:31:06.444Z,16.40
2022-10-13T23:33:34.078Z,16.42
2022-10-13T23:36:01.876Z,16.07
2022-10-13T23:38:31.592Z,16.40
2022-10-13T23:41:09.745Z,16.23
2022-10-13T23:43:37.687Z,16.63
2022-10-13T23:46:05.464Z,16.71
2022-10-13T23:48:33.337Z,16.63
2022-10-13T23:51:06.145Z,16.70
2022-10-13T23:53:36.555Z,16.94
2022-10-13T23:56:07.499Z,17.16
2022-10-13T23:58:36.463Z,16.75
